sensor_id;sensor_type;location;lat;lon;timestamp;temperature;humidity
78788;DHT22;68131;52.508;5.502;2023-04-28T00:00:54;9.70;62.30
78788;DHT22;68131;52.508;5.502;2023-04-28T00:03:26;9.70;62.40
78788;DHT22;68131;52.508;5.502;2023-04-28T00:05:55;9.70;62.40
78788;DHT22;68131;52.508;5.502;2023-04-28T00:08:24;9.70;62.50
78788;DHT22;68131;52.508;5.502;2023-04-28T00:10:53;9.70;62.50
78788;DHT22;68131;52.508;5.502;2023-04-28T00:13:23;9.70;62.50
78788;DHT22;68131;52.508;5.502;2023-04-28T00:15:52;9.70;62.50
78788;DHT22;68131;52.508;5.502;2023-04-28T00:18:21;9.60;62.60
78788;DHT22;68131;52.508;5.502;2023-04-28T00:20:54;9.60;62.50
78788;DHT22;68131;52.508;5.502;2023-04-28T00:23:23;9.60;62.60
78788;DHT22;68131;52.508;5.502;2023-04-28T00:25:52;9.70;62.70
78788;DHT22;68131;52.508;5.502;2023-04-28T00:28:22;9.60;62.60
78788;DHT22;68131;52.508;5.502;2023-04-28T00:30:51;9.60;62.70
78788;DHT22;68131;52.508;5.502;2023-04-28T00:33:20;9.60;62.60
78788;DHT22;68131;52.508;5.502;2023-04-28T00:35:54;9.50;62.60
78788;DHT22;68131;52.508;5.502;2023-04-28T00:38:26;9.50;62.60
78788;DHT22;68131;52.508;5.502;2023-04-28T00:40:55;9.50;62.70
78788;DHT22;68131;52.508;5.502;2023-04-28T00:43:24;9.40;62.80
78788;DHT22;68131;52.508;5.502;2023-04-28T00:45:53;9.40;63.00
78788;DHT22;68131;52.508;5.502;2023-04-28T00:48:23;9.30;63.10
78788;DHT22;68131;52.508;5.502;2023-04-28T00:50:55;9.30;63.20
78788;DHT22;68131;52.508;5.502;2023-04-28T00:53:24;9.20;63.50
78788;DHT22;68131;52.508;5.502;2023-04-28T00:55:53;9.10;63.60
78788;DHT22;68131;52.508;5.502;2023-04-28T00:58:23;9.10;63.70
78788;DHT22;68131;52.508;5.502;2023-04-28T01:00:52;9.00;63.70
78788;DHT22;68131;52.508;5.502;2023-04-28T01:03:29;9.00;64.10
78788;DHT22;68131;52.508;5.502;2023-04-28T01:06:01;9.00;64.20
78788;DHT22;68131;52.508;5.502;2023-04-28T01:08:32;8.90;64.40
78788;DHT22;68131;52.508;5.502;2023-04-28T01:11:03;8.90;64.60
78788;DHT22;68131;52.508;5.502;2023-04-28T01:13:53;8.80;64.50
78788;DHT22;68131;52.508;5.502;2023-04-28T01:16:23;8.80;64.80
78788;DHT22;68131;52.508;5.502;2023-04-28T01:18:53;8.80;64.90
78788;DHT22;68131;52.508;5.502;2023-04-28T01:21:30;8.80;65.10
78788;DHT22;68131;52.508;5.502;2023-04-28T01:24:09;8.70;65.20
78788;DHT22;68131;52.508;5.502;2023-04-28T01:26:39;8.70;65.30
78788;DHT22;68131;52.508;5.502;2023-04-28T01:29:08;8.70;65.40
78788;DHT22;68131;52.508;5.502;2023-04-28T01:31:37;8.70;65.50
78788;DHT22;68131;52.508;5.502;2023-04-28T01:34:06;8.70;65.60
78788;DHT22;68131;52.508;5.502;2023-04-28T01:36:36;8.70;65.70
78788;DHT22;68131;52.508;5.502;2023-04-28T01:39:05;8.70;65.80
78788;DHT22;68131;52.508;5.502;2023-04-28T01:41:36;8.70;65.80
78788;DHT22;68131;52.508;5.502;2023-04-28T01:44:06;8.70;65.80
78788;DHT22;68131;52.508;5.502;2023-04-28T01:46:35;8.70;66.00
78788;DHT22;68131;52.508;5.502;2023-04-28T01:49:04;8.70;66.00
78788;DHT22;68131;52.508;5.502;2023-04-28T01:51:33;8.70;66.10
78788;DHT22;68131;52.508;5.502;2023-04-28T01:54:03;8.70;66.10
78788;DHT22;68131;52.508;5.502;2023-04-28T01:56:32;8.70;66.20
78788;DHT22;68131;52.508;5.502;2023-04-28T01:59:03;8.70;66.30
78788;DHT22;68131;52.508;5.502;2023-04-28T02:01:33;8.70;66.30
78788;DHT22;68131;52.508;5.502;2023-04-28T02:04:03;8.60;66.40
78788;DHT22;68131;52.508;5.502;2023-04-28T02:06:36;8.60;66.70
78788;DHT22;68131;52.508;5.502;2023-04-28T02:09:05;8.60;66.70
78788;DHT22;68131;52.508;5.502;2023-04-28T02:11:34;8.60;66.70
78788;DHT22;68131;52.508;5.502;2023-04-28T02:14:06;8.60;66.90
78788;DHT22;68131;52.508;5.502;2023-04-28T02:16:35;8.60;66.90
78788;DHT22;68131;52.508;5.502;2023-04-28T02:19:04;8.60;67.00
78788;DHT22;68131;52.508;5.502;2023-04-28T02:21:34;8.50;67.10
78788;DHT22;68131;52.508;5.502;2023-04-28T02:24:03;8.50;67.20
78788;DHT22;68131;52.508;5.502;2023-04-28T02:26:33;8.50;67.30
78788;DHT22;68131;52.508;5.502;2023-04-28T02:29:02;8.50;67.40
78788;DHT22;68131;52.508;5.502;2023-04-28T02:31:34;8.60;67.40
78788;DHT22;68131;52.508;5.502;2023-04-28T02:34:03;8.50;67.40
78788;DHT22;68131;52.508;5.502;2023-04-28T02:36:32;8.50;67.50
78788;DHT22;68131;52.508;5.502;2023-04-28T02:39:02;8.50;67.60
78788;DHT22;68131;52.508;5.502;2023-04-28T02:41:31;8.60;67.60
78788;DHT22;68131;52.508;5.502;2023-04-28T02:44:00;8.60;67.50
78788;DHT22;68131;52.508;5.502;2023-04-28T02:46:29;8.60;67.50
78788;DHT22;68131;52.508;5.502;2023-04-28T02:49:01;8.60;67.50
78788;DHT22;68131;52.508;5.502;2023-04-28T02:51:30;8.60;67.40
78788;DHT22;68131;52.508;5.502;2023-04-28T02:53:59;8.60;67.50
78788;DHT22;68131;52.508;5.502;2023-04-28T02:56:28;8.50;67.40
78788;DHT22;68131;52.508;5.502;2023-04-28T02:58:58;8.60;67.40
78788;DHT22;68131;52.508;5.502;2023-04-28T03:01:27;8.60;67.50
78788;DHT22;68131;52.508;5.502;2023-04-28T03:03:59;8.60;67.40
78788;DHT22;68131;52.508;5.502;2023-04-28T03:06:28;8.60;67.40
78788;DHT22;68131;52.508;5.502;2023-04-28T03:08:59;8.60;67.30
78788;DHT22;68131;52.508;5.502;2023-04-28T03:11:29;8.60;67.40
78788;DHT22;68131;52.508;5.502;2023-04-28T03:13:58;8.60;67.40
78788;DHT22;68131;52.508;5.502;2023-04-28T03:16:27;8.60;67.40
78788;DHT22;68131;52.508;5.502;2023-04-28T03:18:56;8.50;67.40
78788;DHT22;68131;52.508;5.502;2023-04-28T03:21:28;8.50;67.50
78788;DHT22;68131;52.508;5.502;2023-04-28T03:23:58;8.50;67.60
78788;DHT22;68131;52.508;5.502;2023-04-28T03:26:27;8.50;67.70
78788;DHT22;68131;52.508;5.502;2023-04-28T03:28:57;8.50;67.80
78788;DHT22;68131;52.508;5.502;2023-04-28T03:31:27;8.50;67.90
78788;DHT22;68131;52.508;5.502;2023-04-28T03:33:56;8.50;67.80
78788;DHT22;68131;52.508;5.502;2023-04-28T03:36:28;8.50;67.60
78788;DHT22;68131;52.508;5.502;2023-04-28T03:39:04;8.50;67.60
78788;DHT22;68131;52.508;5.502;2023-04-28T03:41:34;8.50;67.50
78788;DHT22;68131;52.508;5.502;2023-04-28T03:44:22;8.50;67.40
78788;DHT22;68131;52.508;5.502;2023-04-28T03:46:52;8.40;67.50
78788;DHT22;68131;52.508;5.502;2023-04-28T03:49:21;8.40;67.40
78788;DHT22;68131;52.508;5.502;2023-04-28T03:51:53;8.50;67.40
78788;DHT22;68131;52.508;5.502;2023-04-28T03:54:22;8.50;67.20
78788;DHT22;68131;52.508;5.502;2023-04-28T03:56:51;8.50;67.20
78788;DHT22;68131;52.508;5.502;2023-04-28T03:59:21;8.50;67.20
78788;DHT22;68131;52.508;5.502;2023-04-28T04:01:50;8.50;67.10
78788;DHT22;68131;52.508;5.502;2023-04-28T04:04:19;8.50;67.10
78788;DHT22;68131;52.508;5.502;2023-04-28T04:06:48;8.50;67.10
78788;DHT22;68131;52.508;5.502;2023-04-28T04:09:19;8.50;67.00
78788;DHT22;68131;52.508;5.502;2023-04-28T04:11:49;8.50;66.80
78788;DHT22;68131;52.508;5.502;2023-04-28T04:14:18;8.50;66.80
78788;DHT22;68131;52.508;5.502;2023-04-28T04:16:47;8.50;66.80
78788;DHT22;68131;52.508;5.502;2023-04-28T04:19:16;8.50;66.60
78788;DHT22;68131;52.508;5.502;2023-04-28T04:21:49;8.50;66.50
78788;DHT22;68131;52.508;5.502;2023-04-28T04:24:21;8.50;66.60
78788;DHT22;68131;52.508;5.502;2023-04-28T04:26:50;8.40;66.60
78788;DHT22;68131;52.508;5.502;2023-04-28T04:29:33;8.40;66.60
78788;DHT22;68131;52.508;5.502;2023-04-28T04:32:07;8.40;66.60
78788;DHT22;68131;52.508;5.502;2023-04-28T04:34:37;8.50;66.50
78788;DHT22;68131;52.508;5.502;2023-04-28T04:37:06;8.50;66.40
78788;DHT22;68131;52.508;5.502;2023-04-28T04:39:42;8.50;66.30
78788;DHT22;68131;52.508;5.502;2023-04-28T04:42:12;8.50;66.20
78788;DHT22;68131;52.508;5.502;2023-04-28T04:44:45;8.50;66.20
78788;DHT22;68131;52.508;5.502;2023-04-28T04:47:25;8.50;66.20
78788;DHT22;68131;52.508;5.502;2023-04-28T04:49:54;8.50;66.30
78788;DHT22;68131;52.508;5.502;2023-04-28T04:52:23;8.60;66.20
78788;DHT22;68131;52.508;5.502;2023-04-28T04:54:56;8.50;66.20
78788;DHT22;68131;52.508;5.502;2023-04-28T04:57:25;8.60;66.30
78788;DHT22;68131;52.508;5.502;2023-04-28T05:00:13;8.60;66.20
78788;DHT22;68131;52.508;5.502;2023-04-28T05:02:43;8.60;66.20
78788;DHT22;68131;52.508;5.502;2023-04-28T05:05:15;8.60;66.10
78788;DHT22;68131;52.508;5.502;2023-04-28T05:07:45;8.60;66.00
78788;DHT22;68131;52.508;5.502;2023-04-28T05:10:17;8.70;66.00
78788;DHT22;68131;52.508;5.502;2023-04-28T05:12:46;8.70;65.90
78788;DHT22;68131;52.508;5.502;2023-04-28T05:15:17;8.70;65.80
78788;DHT22;68131;52.508;5.502;2023-04-28T05:18:06;8.70;65.60
78788;DHT22;68131;52.508;5.502;2023-04-28T05:20:37;8.70;65.60
78788;DHT22;68131;52.508;5.502;2023-04-28T05:23:06;8.70;65.60
78788;DHT22;68131;52.508;5.502;2023-04-28T05:25:38;8.80;65.60
78788;DHT22;68131;52.508;5.502;2023-04-28T05:28:08;8.80;65.50
78788;DHT22;68131;52.508;5.502;2023-04-28T05:30:37;8.80;65.50
78788;DHT22;68131;52.508;5.502;2023-04-28T05:33:06;8.70;65.60
78788;DHT22;68131;52.508;5.502;2023-04-28T05:35:35;8.80;65.70
78788;DHT22;68131;52.508;5.502;2023-04-28T05:38:04;8.80;65.60
78788;DHT22;68131;52.508;5.502;2023-04-28T05:40:34;8.80;65.70
78788;DHT22;68131;52.508;5.502;2023-04-28T05:43:06;8.80;65.70
78788;DHT22;68131;52.508;5.502;2023-04-28T05:45:35;8.90;65.60
78788;DHT22;68131;52.508;5.502;2023-04-28T05:48:05;8.80;65.60
78788;DHT22;68131;52.508;5.502;2023-04-28T05:50:34;8.90;65.60
78788;DHT22;68131;52.508;5.502;2023-04-28T05:53:03;8.90;65.50
78788;DHT22;68131;52.508;5.502;2023-04-28T05:55:32;8.90;65.40
78788;DHT22;68131;52.508;5.502;2023-04-28T05:58:06;9.00;65.40
78788;DHT22;68131;52.508;5.502;2023-04-28T06:00:35;9.00;65.50
78788;DHT22;68131;52.508;5.502;2023-04-28T06:03:04;9.10;65.40
78788;DHT22;68131;52.508;5.502;2023-04-28T06:05:36;9.10;65.10
78788;DHT22;68131;52.508;5.502;2023-04-28T06:08:06;9.10;65.00
78788;DHT22;68131;52.508;5.502;2023-04-28T06:10:36;9.20;65.00
78788;DHT22;68131;52.508;5.502;2023-04-28T06:13:08;9.20;64.90
78788;DHT22;68131;52.508;5.502;2023-04-28T06:15:37;9.20;65.10
78788;DHT22;68131;52.508;5.502;2023-04-28T06:18:06;9.20;65.60
78788;DHT22;68131;52.508;5.502;2023-04-28T06:20:36;9.10;66.10
78788;DHT22;68131;52.508;5.502;2023-04-28T06:23:05;9.00;66.40
78788;DHT22;68131;52.508;5.502;2023-04-28T06:25:34;9.00;67.00
78788;DHT22;68131;52.508;5.502;2023-04-28T06:28:04;8.90;67.60
78788;DHT22;68131;52.508;5.502;2023-04-28T06:30:36;8.70;68.50
78788;DHT22;68131;52.508;5.502;2023-04-28T06:33:05;8.60;69.00
78788;DHT22;68131;52.508;5.502;2023-04-28T06:35:34;8.60;69.00
78788;DHT22;68131;52.508;5.502;2023-04-28T06:38:05;8.70;69.20
78788;DHT22;68131;52.508;5.502;2023-04-28T06:40:36;8.80;69.30
78788;DHT22;68131;52.508;5.502;2023-04-28T06:43:06;8.90;69.50
78788;DHT22;68131;52.508;5.502;2023-04-28T06:45:42;9.00;69.50
78788;DHT22;68131;52.508;5.502;2023-04-28T06:48:11;9.00;69.50
78788;DHT22;68131;52.508;5.502;2023-04-28T06:50:40;9.10;69.30
78788;DHT22;68131;52.508;5.502;2023-04-28T06:53:10;9.20;69.20
78788;DHT22;68131;52.508;5.502;2023-04-28T06:55:39;9.30;69.20
78788;DHT22;68131;52.508;5.502;2023-04-28T06:58:08;9.40;69.40
78788;DHT22;68131;52.508;5.502;2023-04-28T07:00:38;9.50;69.60
78788;DHT22;68131;52.508;5.502;2023-04-28T07:03:09;9.50;69.30
78788;DHT22;68131;52.508;5.502;2023-04-28T07:05:39;9.50;69.50
78788;DHT22;68131;52.508;5.502;2023-04-28T07:08:08;9.50;69.60
78788;DHT22;68131;52.508;5.502;2023-04-28T07:10:37;9.50;69.60
78788;DHT22;68131;52.508;5.502;2023-04-28T07:13:06;9.50;69.70
78788;DHT22;68131;52.508;5.502;2023-04-28T07:15:35;9.50;69.80
78788;DHT22;68131;52.508;5.502;2023-04-28T07:18:04;9.50;70.20
78788;DHT22;68131;52.508;5.502;2023-04-28T07:20:36;9.40;70.10
78788;DHT22;68131;52.508;5.502;2023-04-28T07:23:05;9.40;70.20
78788;DHT22;68131;52.508;5.502;2023-04-28T07:25:35;9.40;70.20
78788;DHT22;68131;52.508;5.502;2023-04-28T07:28:05;9.40;70.20
78788;DHT22;68131;52.508;5.502;2023-04-28T07:30:34;9.40;70.20
78788;DHT22;68131;52.508;5.502;2023-04-28T07:33:04;9.40;70.40
78788;DHT22;68131;52.508;5.502;2023-04-28T07:35:36;9.40;70.50
78788;DHT22;68131;52.508;5.502;2023-04-28T07:38:05;9.50;70.50
78788;DHT22;68131;52.508;5.502;2023-04-28T07:40:34;9.50;71.00
78788;DHT22;68131;52.508;5.502;2023-04-28T07:43:06;9.50;71.00
78788;DHT22;68131;52.508;5.502;2023-04-28T07:45:36;9.50;71.00
78788;DHT22;68131;52.508;5.502;2023-04-28T07:48:06;9.60;71.10
78788;DHT22;68131;52.508;5.502;2023-04-28T07:50:38;9.60;71.20
78788;DHT22;68131;52.508;5.502;2023-04-28T07:53:07;9.50;71.30
78788;DHT22;68131;52.508;5.502;2023-04-28T07:55:36;9.60;71.50
78788;DHT22;68131;52.508;5.502;2023-04-28T07:58:07;9.60;71.50
78788;DHT22;68131;52.508;5.502;2023-04-28T08:00:36;9.60;71.20
78788;DHT22;68131;52.508;5.502;2023-04-28T08:03:05;9.70;71.30
78788;DHT22;68131;52.508;5.502;2023-04-28T08:05:37;9.70;71.20
78788;DHT22;68131;52.508;5.502;2023-04-28T08:08:06;9.70;71.20
78788;DHT22;68131;52.508;5.502;2023-04-28T08:10:35;9.70;71.50
78788;DHT22;68131;52.508;5.502;2023-04-28T08:13:05;9.80;71.60
78788;DHT22;68131;52.508;5.502;2023-04-28T08:15:34;9.90;71.50
78788;DHT22;68131;52.508;5.502;2023-04-28T08:18:03;9.90;71.30
78788;DHT22;68131;52.508;5.502;2023-04-28T08:20:32;10.00;71.20
78788;DHT22;68131;52.508;5.502;2023-04-28T08:23:04;10.00;71.10
78788;DHT22;68131;52.508;5.502;2023-04-28T08:25:33;10.00;71.30
78788;DHT22;68131;52.508;5.502;2023-04-28T08:28:03;10.10;71.20
78788;DHT22;68131;52.508;5.502;2023-04-28T08:30:33;10.10;71.50
78788;DHT22;68131;52.508;5.502;2023-04-28T08:33:03;10.20;71.50
78788;DHT22;68131;52.508;5.502;2023-04-28T08:35:33;10.30;71.90
78788;DHT22;68131;52.508;5.502;2023-04-28T08:38:05;10.40;71.70
78788;DHT22;68131;52.508;5.502;2023-04-28T08:40:39;10.50;71.50
78788;DHT22;68131;52.508;5.502;2023-04-28T08:43:08;10.50;71.50
78788;DHT22;68131;52.508;5.502;2023-04-28T08:45:41;10.50;71.60
78788;DHT22;68131;52.508;5.502;2023-04-28T08:48:17;10.70;71.90
78788;DHT22;68131;52.508;5.502;2023-04-28T08:50:49;10.70;71.80
78788;DHT22;68131;52.508;5.502;2023-04-28T08:53:25;10.70;71.60
78788;DHT22;68131;52.508;5.502;2023-04-28T08:55:55;10.80;71.90
78788;DHT22;68131;52.508;5.502;2023-04-28T08:58:25;10.90;71.90
78788;DHT22;68131;52.508;5.502;2023-04-28T09:00:54;11.00;72.40
78788;DHT22;68131;52.508;5.502;2023-04-28T09:03:25;11.10;72.20
78788;DHT22;68131;52.508;5.502;2023-04-28T09:05:55;11.30;71.90
78788;DHT22;68131;52.508;5.502;2023-04-28T09:08:27;11.40;71.80
78788;DHT22;68131;52.508;5.502;2023-04-28T09:11:06;11.40;72.10
78788;DHT22;68131;52.508;5.502;2023-04-28T09:13:36;11.50;72.30
78788;DHT22;68131;52.508;5.502;2023-04-28T09:16:06;11.60;72.00
78788;DHT22;68131;52.508;5.502;2023-04-28T09:18:35;11.70;72.10
78788;DHT22;68131;52.508;5.502;2023-04-28T09:21:06;11.80;72.00
78788;DHT22;68131;52.508;5.502;2023-04-28T09:23:47;11.80;72.30
78788;DHT22;68131;52.508;5.502;2023-04-28T09:26:16;11.90;72.10
78788;DHT22;68131;52.508;5.502;2023-04-28T09:28:45;11.90;72.30
78788;DHT22;68131;52.508;5.502;2023-04-28T09:31:21;12.00;72.50
78788;DHT22;68131;52.508;5.502;2023-04-28T09:33:56;12.00;72.80
78788;DHT22;68131;52.508;5.502;2023-04-28T09:36:26;12.10;73.50
78788;DHT22;68131;52.508;5.502;2023-04-28T09:38:59;12.10;73.30
78788;DHT22;68131;52.508;5.502;2023-04-28T09:41:35;12.10;73.40
78788;DHT22;68131;52.508;5.502;2023-04-28T09:44:16;12.20;73.20
78788;DHT22;68131;52.508;5.502;2023-04-28T09:46:47;12.20;73.40
78788;DHT22;68131;52.508;5.502;2023-04-28T09:49:16;12.20;73.80
78788;DHT22;68131;52.508;5.502;2023-04-28T09:51:45;12.20;74.10
78788;DHT22;68131;52.508;5.502;2023-04-28T09:54:20;12.30;74.00
78788;DHT22;68131;52.508;5.502;2023-04-28T09:56:50;12.40;74.10
78788;DHT22;68131;52.508;5.502;2023-04-28T09:59:20;12.40;74.40
78788;DHT22;68131;52.508;5.502;2023-04-28T10:01:49;12.40;74.60
78788;DHT22;68131;52.508;5.502;2023-04-28T10:04:18;12.40;74.60
78788;DHT22;68131;52.508;5.502;2023-04-28T10:06:48;12.40;74.80
78788;DHT22;68131;52.508;5.502;2023-04-28T10:09:21;12.40;75.20
78788;DHT22;68131;52.508;5.502;2023-04-28T10:11:51;12.50;75.20
78788;DHT22;68131;52.508;5.502;2023-04-28T10:14:20;12.60;75.30
78788;DHT22;68131;52.508;5.502;2023-04-28T10:16:51;12.60;75.20
78788;DHT22;68131;52.508;5.502;2023-04-28T10:19:21;12.60;75.20
78788;DHT22;68131;52.508;5.502;2023-04-28T10:21:56;12.60;75.40
78788;DHT22;68131;52.508;5.502;2023-04-28T10:24:32;12.70;75.50
78788;DHT22;68131;52.508;5.502;2023-04-28T10:27:07;12.80;75.60
78788;DHT22;68131;52.508;5.502;2023-04-28T10:29:37;12.80;75.90
78788;DHT22;68131;52.508;5.502;2023-04-28T10:32:30;12.90;76.10
78788;DHT22;68131;52.508;5.502;2023-04-28T10:38:05;13.00;76.70
78788;DHT22;68131;52.508;5.502;2023-04-28T10:40:38;13.10;76.80
78788;DHT22;68131;52.508;5.502;2023-04-28T10:43:09;13.30;76.50
78788;DHT22;68131;52.508;5.502;2023-04-28T10:46:00;13.30;76.40
78788;DHT22;68131;52.508;5.502;2023-04-28T10:48:52;13.30;76.40
78788;DHT22;68131;52.508;5.502;2023-04-28T10:51:23;13.40;76.70
78788;DHT22;68131;52.508;5.502;2023-04-28T10:54:16;13.40;76.90
78788;DHT22;68131;52.508;5.502;2023-04-28T10:57:19;13.40;77.10
78788;DHT22;68131;52.508;5.502;2023-04-28T10:59:49;13.40;77.30
78788;DHT22;68131;52.508;5.502;2023-04-28T11:02:40;13.40;77.30
78788;DHT22;68131;52.508;5.502;2023-04-28T11:05:15;13.50;77.30
78788;DHT22;68131;52.508;5.502;2023-04-28T11:11:20;13.50;77.20
78788;DHT22;68131;52.508;5.502;2023-04-28T11:13:54;13.40;77.40
78788;DHT22;68131;52.508;5.502;2023-04-28T11:16:24;13.40;77.60
78788;DHT22;68131;52.508;5.502;2023-04-28T11:18:56;13.40;77.70
78788;DHT22;68131;52.508;5.502;2023-04-28T11:21:28;13.30;77.90
78788;DHT22;68131;52.508;5.502;2023-04-28T11:23:58;13.30;78.10
78788;DHT22;68131;52.508;5.502;2023-04-28T11:26:27;13.30;78.40
78788;DHT22;68131;52.508;5.502;2023-04-28T11:29:00;13.40;78.70
78788;DHT22;68131;52.508;5.502;2023-04-28T11:31:29;13.40;78.80
78788;DHT22;68131;52.508;5.502;2023-04-28T11:34:01;13.50;78.70
78788;DHT22;68131;52.508;5.502;2023-04-28T11:36:33;13.60;78.60
78788;DHT22;68131;52.508;5.502;2023-04-28T11:39:05;13.70;78.60
78788;DHT22;68131;52.508;5.502;2023-04-28T11:41:36;13.70;78.50
78788;DHT22;68131;52.508;5.502;2023-04-28T11:44:12;13.80;78.70
78788;DHT22;68131;52.508;5.502;2023-04-28T11:46:45;13.90;78.80
78788;DHT22;68131;52.508;5.502;2023-04-28T11:49:17;13.90;78.70
78788;DHT22;68131;52.508;5.502;2023-04-28T11:51:47;13.90;78.90
78788;DHT22;68131;52.508;5.502;2023-04-28T11:54:20;13.90;79.00
78788;DHT22;68131;52.508;5.502;2023-04-28T11:56:50;13.90;79.00
78788;DHT22;68131;52.508;5.502;2023-04-28T11:59:25;14.00;79.00
78788;DHT22;68131;52.508;5.502;2023-04-28T12:01:59;14.00;78.80
78788;DHT22;68131;52.508;5.502;2023-04-28T12:04:29;14.00;78.80
78788;DHT22;68131;52.508;5.502;2023-04-28T12:07:02;14.00;78.80
78788;DHT22;68131;52.508;5.502;2023-04-28T12:09:33;14.00;78.90
78788;DHT22;68131;52.508;5.502;2023-04-28T12:12:03;14.10;79.00
78788;DHT22;68131;52.508;5.502;2023-04-28T12:14:55;14.10;78.90
78788;DHT22;68131;52.508;5.502;2023-04-28T12:17:25;14.10;78.60
78788;DHT22;68131;52.508;5.502;2023-04-28T12:19:56;14.10;78.80
78788;DHT22;68131;52.508;5.502;2023-04-28T12:22:25;14.10;78.80
78788;DHT22;68131;52.508;5.502;2023-04-28T12:25:05;14.10;78.80
78788;DHT22;68131;52.508;5.502;2023-04-28T12:27:35;14.20;78.90
78788;DHT22;68131;52.508;5.502;2023-04-28T12:30:25;14.20;78.90
78788;DHT22;68131;52.508;5.502;2023-04-28T12:32:55;14.30;78.70
78788;DHT22;68131;52.508;5.502;2023-04-28T12:35:25;14.30;78.60
78788;DHT22;68131;52.508;5.502;2023-04-28T12:37:55;14.30;78.60
78788;DHT22;68131;52.508;5.502;2023-04-28T12:40:25;14.40;78.50
78788;DHT22;68131;52.508;5.502;2023-04-28T12:42:54;14.40;78.40
78788;DHT22;68131;52.508;5.502;2023-04-28T12:45:26;14.40;78.30
78788;DHT22;68131;52.508;5.502;2023-04-28T12:47:56;14.40;78.40
78788;DHT22;68131;52.508;5.502;2023-04-28T12:50:25;14.50;78.40
78788;DHT22;68131;52.508;5.502;2023-04-28T12:52:57;14.50;78.40
78788;DHT22;68131;52.508;5.502;2023-04-28T12:55:28;14.50;78.50
78788;DHT22;68131;52.508;5.502;2023-04-28T12:57:57;14.60;78.50
78788;DHT22;68131;52.508;5.502;2023-04-28T13:00:29;14.70;78.50
78788;DHT22;68131;52.508;5.502;2023-04-28T13:02:58;14.70;78.40
78788;DHT22;68131;52.508;5.502;2023-04-28T13:05:27;14.80;78.40
78788;DHT22;68131;52.508;5.502;2023-04-28T13:07:57;14.80;78.40
78788;DHT22;68131;52.508;5.502;2023-04-28T13:10:26;14.80;78.50
78788;DHT22;68131;52.508;5.502;2023-04-28T13:12:55;14.80;78.40
78788;DHT22;68131;52.508;5.502;2023-04-28T13:15:24;14.80;78.30
78788;DHT22;68131;52.508;5.502;2023-04-28T13:17:56;14.70;78.30
78788;DHT22;68131;52.508;5.502;2023-04-28T13:20:25;14.70;78.30
78788;DHT22;68131;52.508;5.502;2023-04-28T13:22:54;14.70;78.30
78788;DHT22;68131;52.508;5.502;2023-04-28T13:25:23;14.70;78.30
78788;DHT22;68131;52.508;5.502;2023-04-28T13:27:52;14.60;78.30
78788;DHT22;68131;52.508;5.502;2023-04-28T13:30:21;14.60;78.30
78788;DHT22;68131;52.508;5.502;2023-04-28T13:32:50;14.60;78.30
78788;DHT22;68131;52.508;5.502;2023-04-28T13:35:23;14.70;78.40
78788;DHT22;68131;52.508;5.502;2023-04-28T13:37:52;14.60;78.30
78788;DHT22;68131;52.508;5.502;2023-04-28T13:40:26;14.60;78.50
78788;DHT22;68131;52.508;5.502;2023-04-28T13:42:55;14.60;78.50
78788;DHT22;68131;52.508;5.502;2023-04-28T13:45:24;14.60;78.60
78788;DHT22;68131;52.508;5.502;2023-04-28T13:47:54;14.60;78.80
78788;DHT22;68131;52.508;5.502;2023-04-28T13:50:25;14.60;78.70
78788;DHT22;68131;52.508;5.502;2023-04-28T13:52:54;14.60;78.80
78788;DHT22;68131;52.508;5.502;2023-04-28T13:55:24;14.60;78.50
78788;DHT22;68131;52.508;5.502;2023-04-28T13:57:55;14.60;78.40
78788;DHT22;68131;52.508;5.502;2023-04-28T14:00:27;14.60;78.30
78788;DHT22;68131;52.508;5.502;2023-04-28T14:02:57;14.50;78.30
78788;DHT22;68131;52.508;5.502;2023-04-28T14:05:30;14.50;78.30
78788;DHT22;68131;52.508;5.502;2023-04-28T14:07:59;14.40;78.30
78788;DHT22;68131;52.508;5.502;2023-04-28T14:10:29;14.30;78.30
78788;DHT22;68131;52.508;5.502;2023-04-28T14:12:58;14.30;78.40
78788;DHT22;68131;52.508;5.502;2023-04-28T14:15:28;14.30;78.40
78788;DHT22;68131;52.508;5.502;2023-04-28T14:17:58;14.20;78.40
78788;DHT22;68131;52.508;5.502;2023-04-28T14:20:30;14.20;78.30
78788;DHT22;68131;52.508;5.502;2023-04-28T14:22:59;14.20;78.40
78788;DHT22;68131;52.508;5.502;2023-04-28T14:25:28;14.20;78.40
78788;DHT22;68131;52.508;5.502;2023-04-28T14:27:57;14.20;78.50
78788;DHT22;68131;52.508;5.502;2023-04-28T14:30:26;14.20;78.40
78788;DHT22;68131;52.508;5.502;2023-04-28T14:32:56;14.20;78.40
78788;DHT22;68131;52.508;5.502;2023-04-28T14:35:25;14.20;78.20
78788;DHT22;68131;52.508;5.502;2023-04-28T14:37:59;14.20;78.10
78788;DHT22;68131;52.508;5.502;2023-04-28T14:40:28;14.20;78.20
78788;DHT22;68131;52.508;5.502;2023-04-28T14:42:58;14.20;78.20
78788;DHT22;68131;52.508;5.502;2023-04-28T14:45:27;14.20;78.20
78788;DHT22;68131;52.508;5.502;2023-04-28T14:47:56;14.10;78.20
78788;DHT22;68131;52.508;5.502;2023-04-28T14:50:25;14.10;78.20
78788;DHT22;68131;52.508;5.502;2023-04-28T14:52:54;14.10;78.30
78788;DHT22;68131;52.508;5.502;2023-04-28T14:55:33;14.10;78.30
78788;DHT22;68131;52.508;5.502;2023-04-28T14:58:02;14.00;78.20
78788;DHT22;68131;52.508;5.502;2023-04-28T15:00:31;14.00;78.20
78788;DHT22;68131;52.508;5.502;2023-04-28T15:03:00;14.00;78.30
78788;DHT22;68131;52.508;5.502;2023-04-28T15:05:29;14.10;78.30
78788;DHT22;68131;52.508;5.502;2023-04-28T15:07:58;14.10;78.20
78788;DHT22;68131;52.508;5.502;2023-04-28T15:10:36;14.20;78.20
78788;DHT22;68131;52.508;5.502;2023-04-28T15:13:06;14.20;78.10
78788;DHT22;68131;52.508;5.502;2023-04-28T15:15:35;14.30;78.00
78788;DHT22;68131;52.508;5.502;2023-04-28T15:18:05;14.40;77.90
78788;DHT22;68131;52.508;5.502;2023-04-28T15:20:35;14.50;77.60
78788;DHT22;68131;52.508;5.502;2023-04-28T15:23:05;14.60;77.20
78788;DHT22;68131;52.508;5.502;2023-04-28T15:25:37;14.50;76.90
78788;DHT22;68131;52.508;5.502;2023-04-28T15:28:06;14.50;76.80
78788;DHT22;68131;52.508;5.502;2023-04-28T15:30:35;14.50;76.80
78788;DHT22;68131;52.508;5.502;2023-04-28T15:33:04;14.50;76.70
78788;DHT22;68131;52.508;5.502;2023-04-28T15:35:33;14.50;76.50
78788;DHT22;68131;52.508;5.502;2023-04-28T15:38:02;14.50;76.40
78788;DHT22;68131;52.508;5.502;2023-04-28T15:40:32;14.50;76.30
78788;DHT22;68131;52.508;5.502;2023-04-28T15:43:03;14.50;76.10
78788;DHT22;68131;52.508;5.502;2023-04-28T15:45:33;14.40;76.10
78788;DHT22;68131;52.508;5.502;2023-04-28T15:48:02;14.40;76.10
78788;DHT22;68131;52.508;5.502;2023-04-28T15:50:31;14.40;76.10
78788;DHT22;68131;52.508;5.502;2023-04-28T15:53:00;14.40;76.10
78788;DHT22;68131;52.508;5.502;2023-04-28T15:55:29;14.30;76.00
78788;DHT22;68131;52.508;5.502;2023-04-28T15:58:00;14.30;76.00
78788;DHT22;68131;52.508;5.502;2023-04-28T16:00:31;14.30;76.10
78788;DHT22;68131;52.508;5.502;2023-04-28T16:03:01;14.30;76.20
78788;DHT22;68131;52.508;5.502;2023-04-28T16:05:30;14.30;76.10
78788;DHT22;68131;52.508;5.502;2023-04-28T16:07:59;14.20;76.10
78788;DHT22;68131;52.508;5.502;2023-04-28T16:10:28;14.20;76.20